createdAt,value
2024-02-29T00:01:23.844Z,36.88
2024-02-29T00:04:41.373Z,35.95
2024-02-29T00:08:00.673Z,36.08
2024-02-29T00:11:18.266Z,35.70
2024-02-29T00:14:36.014Z,31.60
2024-02-29T00:17:53.808Z,29.95
2024-02-29T00:21:12.205Z,30.30
2024-02-29T00:24:29.773Z,29.70
2024-02-29T00:27:47.472Z,28.85
2024-02-29T00:31:05.614Z,29.00
2024-02-29T00:34:23.370Z,28.68
2024-02-29T00:37:41.195Z,28.98
2024-02-29T00:40:58.749Z,28.35
2024-02-29T00:44:16.492Z,28.73
2024-02-29T00:47:34.337Z,27.03
2024-02-29T00:50:52.165Z,29.93
2024-02-29T00:54:09.858Z,28.20
2024-02-29T00:57:27.467Z,29.30
2024-02-29T01:00:45.149Z,30.65
2024-02-29T01:04:02.872Z,31.08
2024-02-29T01:07:21.016Z,29.85
2024-02-29T01:10:38.897Z,29.55
2024-02-29T01:13:56.849Z,30.25
2024-02-29T01:17:14.220Z,30.13
2024-02-29T01:20:32.808Z,29.95
2024-02-29T01:23:50.412Z,29.83
2024-02-29T01:27:07.942Z,30.60
2024-02-29T01:30:26.850Z,29.28
2024-02-29T01:33:44.559Z,27.93
2024-02-29T01:37:02.287Z,29.38
2024-02-29T01:40:21.786Z,29.00
2024-02-29T01:43:39.354Z,30.30
2024-02-29T01:46:56.927Z,28.85
2024-02-29T01:50:19.104Z,31.03
2024-02-29T01:53:36.746Z,29.93
2024-02-29T01:56:54.449Z,31.50
2024-02-29T02:00:14.620Z,29.73
2024-02-29T02:03:32.570Z,29.85
2024-02-29T02:06:51.183Z,29.35
2024-02-29T02:10:09.590Z,28.33
2024-02-29T02:13:27.304Z,30.55
2024-02-29T02:16:45.038Z,31.48
2024-02-29T02:20:03.133Z,38.28
2024-02-29T02:23:20.866Z,42.65
2024-02-29T02:26:38.432Z,44.48
2024-02-29T02:29:56.235Z,46.85
2024-02-29T02:33:14.332Z,43.83
2024-02-29T02:36:31.766Z,43.83
2024-02-29T02:39:49.872Z,43.05
2024-02-29T02:43:07.556Z,40.65
2024-02-29T02:46:25.694Z,41.70
2024-02-29T02:49:44.036Z,40.53
2024-02-29T02:53:01.625Z,39.95
2024-02-29T02:56:19.303Z,40.78
2024-02-29T02:59:37.893Z,41.13
2024-02-29T03:02:55.425Z,35.93
2024-02-29T03:06:15.739Z,38.55
2024-02-29T03:09:33.601Z,38.30
2024-02-29T03:12:52.762Z,40.68
2024-02-29T03:16:11.120Z,40.93
2024-02-29T03:19:28.703Z,43.83
2024-02-29T03:22:47.781Z,44.03
2024-02-29T03:26:06.307Z,42.68
2024-02-29T03:29:24.437Z,42.05
2024-02-29T03:32:42.122Z,37.30
2024-02-29T03:35:59.912Z,34.68
2024-02-29T03:39:17.790Z,30.78
2024-02-29T03:42:35.611Z,28.88
2024-02-29T03:45:53.159Z,29.20
2024-02-29T03:49:14.212Z,29.70
2024-02-29T03:52:31.893Z,26.30
2024-02-29T03:55:50.121Z,28.65
2024-02-29T03:59:07.876Z,26.60
2024-02-29T04:02:25.639Z,27.28
2024-02-29T04:05:43.243Z,27.18
2024-02-29T04:09:00.999Z,27.95
2024-02-29T04:12:19.427Z,29.70
2024-02-29T04:15:37.163Z,29.43
2024-02-29T04:18:54.515Z,28.25
2024-02-29T04:22:12.487Z,29.28
2024-02-29T04:25:30.310Z,30.43
2024-02-29T04:28:47.839Z,27.93
2024-02-29T04:32:05.784Z,29.55
2024-02-29T04:35:23.605Z,27.43
2024-02-29T04:38:40.654Z,29.08
2024-02-29T04:45:17.796Z,27.03
2024-02-29T04:48:36.488Z,26.88
2024-02-29T04:51:54.248Z,25.53
2024-02-29T04:55:12.739Z,27.38
2024-02-29T04:58:30.686Z,26.98
2024-02-29T05:01:48.576Z,27.15
2024-02-29T05:05:08.349Z,27.75
2024-02-29T05:08:25.836Z,28.83
2024-02-29T05:11:43.665Z,29.95
2024-02-29T05:15:01.566Z,27.43
2024-02-29T05:18:20.085Z,30.78
2024-02-29T05:21:38.344Z,32.08
2024-02-29T05:24:55.962Z,33.23
2024-02-29T05:28:14.113Z,33.65
2024-02-29T05:31:31.848Z,36.28
2024-02-29T05:34:49.354Z,37.68
2024-02-29T05:38:08.242Z,34.85
2024-02-29T05:41:25.886Z,36.15
2024-02-29T05:44:43.859Z,39.75
2024-02-29T05:48:01.323Z,39.83
2024-02-29T05:51:19.027Z,40.35
2024-02-29T05:54:36.647Z,38.80
2024-02-29T05:57:54.395Z,39.48
2024-02-29T06:01:12.882Z,36.35
2024-02-29T06:04:30.945Z,36.78
2024-02-29T06:07:48.783Z,34.70
2024-02-29T06:11:06.460Z,35.60
2024-02-29T06:14:26.692Z,35.80
2024-02-29T06:17:44.475Z,38.53
2024-02-29T06:21:02.426Z,37.43
2024-02-29T06:24:21.169Z,33.70
2024-02-29T06:27:41.667Z,35.03
2024-02-29T06:30:59.602Z,34.88
2024-02-29T06:34:19.295Z,32.03
2024-02-29T06:37:37.069Z,35.30
2024-02-29T06:40:55.599Z,37.58
2024-02-29T06:44:14.197Z,60.68
2024-02-29T06:47:31.739Z,36.48
2024-02-29T06:50:49.681Z,32.53
2024-02-29T06:54:07.586Z,32.43
2024-02-29T06:57:25.305Z,32.38
2024-02-29T07:00:43.255Z,34.80
2024-02-29T07:04:01.074Z,31.70
2024-02-29T07:07:18.996Z,32.80
2024-02-29T07:10:36.921Z,30.98
2024-02-29T07:13:54.521Z,30.38
2024-02-29T07:17:12.472Z,34.45
2024-02-29T07:20:30.340Z,34.73
2024-02-29T07:23:47.894Z,33.18
2024-02-29T07:27:05.696Z,30.15
2024-02-29T07:30:23.682Z,31.90
2024-02-29T07:33:41.661Z,33.20
2024-02-29T07:36:59.688Z,33.38
2024-02-29T07:40:18.637Z,33.33
2024-02-29T07:43:36.357Z,33.23
2024-02-29T07:46:53.888Z,32.60
2024-02-29T07:50:12.949Z,31.65
2024-02-29T07:53:31.465Z,32.95
2024-02-29T07:56:52.321Z,31.60
2024-02-29T08:00:12.120Z,34.90
2024-02-29T08:03:29.636Z,35.80
2024-02-29T08:06:47.457Z,34.58
2024-02-29T08:10:05.297Z,35.85
2024-02-29T08:13:23.075Z,34.65
2024-02-29T08:16:40.841Z,43.15
2024-02-29T08:19:58.519Z,35.50
2024-02-29T08:23:17.792Z,32.93
2024-02-29T08:26:35.544Z,35.68
2024-02-29T08:29:53.071Z,33.63
2024-02-29T08:33:10.927Z,32.95
2024-02-29T08:36:30.856Z,33.43
2024-02-29T08:39:48.423Z,31.85
2024-02-29T08:43:05.671Z,49.35
2024-02-29T08:46:23.558Z,35.73
2024-02-29T08:49:41.316Z,33.55
2024-02-29T08:52:59.412Z,33.23
2024-02-29T08:56:17.187Z,45.95
2024-02-29T08:59:34.772Z,33.80
2024-02-29T09:02:52.597Z,39.68
2024-02-29T09:06:10.436Z,53.88
2024-02-29T09:09:30.194Z,35.30
2024-02-29T09:12:48.920Z,30.65
2024-02-29T09:16:06.517Z,29.85
2024-02-29T09:19:24.406Z,31.68
2024-02-29T09:22:42.686Z,32.00
2024-02-29T09:26:00.539Z,30.55
2024-02-29T09:29:18.024Z,30.83
2024-02-29T09:32:35.683Z,31.88
2024-02-29T09:35:55.330Z,30.60
2024-02-29T09:39:13.142Z,29.38
2024-02-29T09:42:31.270Z,32.73
2024-02-29T09:45:50.763Z,32.80
2024-02-29T09:49:10.183Z,33.80
2024-02-29T09:52:28.295Z,41.88
2024-02-29T09:55:46.703Z,42.15
2024-02-29T09:59:08.695Z,31.48
2024-02-29T10:02:26.557Z,29.15
2024-02-29T10:05:44.347Z,33.75
2024-02-29T10:09:08.899Z,32.80
2024-02-29T10:12:31.138Z,31.03
2024-02-29T10:15:50.271Z,48.30
2024-02-29T10:19:09.389Z,36.45
2024-02-29T10:22:30.008Z,33.13
2024-02-29T10:25:53.987Z,32.63
2024-02-29T10:29:16.932Z,31.33
2024-02-29T10:32:34.584Z,29.68
2024-02-29T10:35:56.515Z,31.10
2024-02-29T10:39:17.442Z,31.15
2024-02-29T10:42:35.316Z,29.45
2024-02-29T10:45:56.463Z,38.45
2024-02-29T10:49:20.008Z,36.38
2024-02-29T10:52:40.858Z,31.75
2024-02-29T10:56:03.260Z,29.05
2024-02-29T10:59:24.857Z,38.10
2024-02-29T11:03:07.741Z,31.15
2024-02-29T11:09:47.031Z,29.48
2024-02-29T11:13:14.648Z,29.48
2024-02-29T11:16:32.714Z,29.80
2024-02-29T11:19:54.868Z,38.40
2024-02-29T11:23:18.156Z,30.13
2024-02-29T11:26:40.795Z,28.10
2024-02-29T11:30:06.830Z,27.85
2024-02-29T11:33:27.708Z,27.30
2024-02-29T11:36:47.841Z,27.13
2024-02-29T11:40:15.381Z,29.75
2024-02-29T11:43:33.743Z,29.58
2024-02-29T11:47:00.624Z,30.28
2024-02-29T11:50:21.312Z,31.68
2024-02-29T11:53:45.083Z,29.43
2024-02-29T11:57:04.673Z,32.65
2024-02-29T12:00:27.895Z,31.38
2024-02-29T12:03:46.572Z,44.73
2024-02-29T12:07:05.042Z,38.00
2024-02-29T12:10:23.374Z,32.13
2024-02-29T12:13:40.859Z,34.65
2024-02-29T12:16:58.816Z,33.00
2024-02-29T12:20:19.141Z,31.25
2024-02-29T12:23:39.426Z,34.45
2024-02-29T12:26:58.765Z,34.53
2024-02-29T12:30:19.395Z,33.13
2024-02-29T12:33:37.349Z,33.10
2024-02-29T12:36:57.018Z,31.90
2024-02-29T12:40:18.028Z,34.03
2024-02-29T12:43:35.837Z,31.70
2024-02-29T12:47:00.285Z,32.00
2024-02-29T12:50:19.091Z,34.63
2024-02-29T12:53:36.768Z,34.18
2024-02-29T12:56:56.258Z,33.83
2024-02-29T13:00:17.115Z,33.55
2024-02-29T13:03:34.905Z,33.85
2024-02-29T13:06:54.882Z,33.48
2024-02-29T13:10:15.745Z,33.30
2024-02-29T13:13:33.463Z,34.68
2024-02-29T13:16:54.144Z,34.13
2024-02-29T13:20:13.263Z,33.33
2024-02-29T13:23:31.340Z,32.25
2024-02-29T13:26:49.461Z,30.75
2024-02-29T13:30:11.186Z,32.95
2024-02-29T13:33:28.923Z,34.10
2024-02-29T13:36:46.731Z,34.05
2024-02-29T13:40:05.507Z,32.03
2024-02-29T13:43:23.143Z,35.03
2024-02-29T13:46:41.175Z,39.30
2024-02-29T13:49:58.931Z,34.15
2024-02-29T13:53:16.888Z,35.10
2024-02-29T13:56:36.270Z,31.80
2024-02-29T13:59:56.277Z,31.53
2024-02-29T14:03:14.297Z,33.28
2024-02-29T14:06:34.937Z,30.85
2024-02-29T14:09:53.607Z,30.53
2024-02-29T14:13:11.960Z,32.38
2024-02-29T14:16:29.595Z,30.13
2024-02-29T14:19:47.309Z,29.65
2024-02-29T14:23:05.726Z,31.33
2024-02-29T14:26:24.205Z,32.90
2024-02-29T14:29:41.745Z,33.45
2024-02-29T14:33:01.215Z,31.93
2024-02-29T14:36:22.021Z,30.73
2024-02-29T14:39:39.723Z,31.48
2024-02-29T14:42:57.628Z,31.80
2024-02-29T14:46:15.315Z,33.30
2024-02-29T14:49:33.245Z,31.88
2024-02-29T14:52:52.427Z,31.90
2024-02-29T14:56:10.318Z,30.45
2024-02-29T14:59:27.717Z,30.53
2024-02-29T15:02:45.463Z,32.53
2024-02-29T15:06:02.897Z,33.25
2024-02-29T15:09:20.606Z,34.75
2024-02-29T15:12:38.178Z,36.18
2024-02-29T15:15:56.294Z,37.85
2024-02-29T15:19:14.026Z,37.55
2024-02-29T15:22:33.204Z,36.23
2024-02-29T15:25:51.616Z,36.30
2024-02-29T15:29:09.376Z,35.98
2024-02-29T15:32:27.046Z,34.95
2024-02-29T15:35:44.714Z,33.40
2024-02-29T15:39:02.477Z,34.95
2024-02-29T15:42:21.620Z,32.38
2024-02-29T15:45:38.970Z,34.63
2024-02-29T15:48:56.931Z,34.30
2024-02-29T15:52:15.428Z,31.25
2024-02-29T15:55:33.063Z,33.05
2024-02-29T15:58:50.999Z,50.73
2024-02-29T16:02:08.733Z,42.40
2024-02-29T16:05:27.541Z,34.15
2024-02-29T16:08:45.129Z,32.65
2024-02-29T16:12:03.787Z,31.53
2024-02-29T16:15:21.579Z,32.25
2024-02-29T16:18:39.104Z,33.98
2024-02-29T16:21:56.645Z,33.30
2024-02-29T16:25:15.524Z,33.40
2024-02-29T16:28:33.362Z,35.45
2024-02-29T16:31:51.107Z,33.93
2024-02-29T16:35:09.138Z,36.23
2024-02-29T16:38:27.400Z,35.30
2024-02-29T16:41:45.693Z,36.03
2024-02-29T16:45:03.530Z,35.48
2024-02-29T16:48:21.430Z,36.15
2024-02-29T16:51:38.950Z,35.90
2024-02-29T16:54:56.835Z,36.55
2024-02-29T16:58:14.918Z,35.85
2024-02-29T17:01:32.546Z,41.48
2024-02-29T17:04:51.886Z,42.53
2024-02-29T17:08:10.321Z,51.60
2024-02-29T17:11:27.988Z,38.45
2024-02-29T17:14:45.775Z,38.50
2024-02-29T17:18:03.364Z,35.53
2024-02-29T17:21:22.957Z,36.48
2024-02-29T17:24:42.354Z,38.43
2024-02-29T17:27:59.935Z,39.25
2024-02-29T17:31:17.524Z,36.55
2024-02-29T17:34:35.210Z,39.33
2024-02-29T17:37:52.958Z,38.68
2024-02-29T17:41:10.971Z,39.55
2024-02-29T17:44:28.819Z,40.60
2024-02-29T17:47:47.623Z,40.58
2024-02-29T17:51:04.752Z,40.90
2024-02-29T17:54:22.779Z,40.30
2024-02-29T17:57:40.318Z,40.58
2024-02-29T18:00:59.482Z,42.90
2024-02-29T18:04:17.139Z,43.08
2024-02-29T18:07:38.280Z,42.55
2024-02-29T18:10:54.755Z,42.60
2024-02-29T18:14:12.423Z,44.03
2024-02-29T18:17:30.408Z,38.98
2024-02-29T18:20:48.316Z,42.15
2024-02-29T18:24:05.949Z,42.55
2024-02-29T18:27:23.650Z,42.28
2024-02-29T18:30:42.365Z,41.90
2024-02-29T18:34:00.125Z,50.83
2024-02-29T18:37:18.731Z,44.68
2024-02-29T18:40:37.203Z,40.55
2024-02-29T18:43:54.916Z,43.63
2024-02-29T18:47:13.210Z,45.15
2024-02-29T18:50:30.915Z,43.38
2024-02-29T18:53:48.972Z,45.08
2024-02-29T18:57:06.872Z,43.50
2024-02-29T19:00:26.193Z,44.03
2024-02-29T19:03:43.638Z,53.70
2024-02-29T19:07:01.743Z,46.38
2024-02-29T19:10:20.665Z,43.98
2024-02-29T19:13:38.017Z,47.65
2024-02-29T19:16:55.807Z,46.28
2024-02-29T19:20:15.446Z,49.75
2024-02-29T19:23:33.222Z,47.80
2024-02-29T19:26:51.829Z,97.28
2024-02-29T19:30:10.741Z,51.40
2024-02-29T19:33:28.415Z,48.83
2024-02-29T19:36:45.935Z,47.05
2024-02-29T19:40:03.881Z,47.73
2024-02-29T19:43:24.201Z,49.13
2024-02-29T19:46:41.869Z,51.40
2024-02-29T19:49:59.523Z,51.80
2024-02-29T19:53:18.000Z,49.08
2024-02-29T19:56:35.609Z,46.93
2024-02-29T19:59:53.318Z,50.45
2024-02-29T20:03:11.532Z,48.90
2024-02-29T20:06:29.348Z,51.95
2024-02-29T20:09:47.795Z,52.23
2024-02-29T20:13:05.819Z,54.03
2024-02-29T20:16:23.860Z,53.23
2024-02-29T20:19:42.193Z,54.33
2024-02-29T20:23:01.303Z,54.90
2024-02-29T20:26:24.933Z,53.73
2024-02-29T20:29:43.076Z,56.73
2024-02-29T20:33:01.120Z,58.63
2024-02-29T20:36:19.373Z,53.85
2024-02-29T20:39:37.272Z,55.55
2024-02-29T20:42:54.975Z,56.90
2024-02-29T20:46:13.096Z,56.83
2024-02-29T20:49:31.360Z,55.78
2024-02-29T20:52:49.798Z,56.98
2024-02-29T20:56:08.017Z,57.58
2024-02-29T20:59:28.054Z,59.48
2024-02-29T21:02:48.252Z,53.30
2024-02-29T21:06:06.198Z,54.95
2024-02-29T21:09:24.829Z,54.28
2024-02-29T21:12:42.439Z,56.03
2024-02-29T21:16:00.883Z,56.30
2024-02-29T21:19:20.508Z,55.00
2024-02-29T21:22:38.094Z,57.95
2024-02-29T21:25:55.922Z,58.63
2024-02-29T21:29:13.440Z,54.93
2024-02-29T21:32:31.387Z,53.38
2024-02-29T21:35:50.925Z,57.50
2024-02-29T21:39:10.237Z,59.43
2024-02-29T21:42:27.698Z,55.10
2024-02-29T21:45:45.237Z,57.08
2024-02-29T21:49:03.136Z,58.10
2024-02-29T21:52:20.986Z,56.80
2024-02-29T21:55:38.608Z,58.53
2024-02-29T21:58:58.705Z,58.10
2024-02-29T22:02:17.365Z,59.13
2024-02-29T22:05:35.307Z,58.08
2024-02-29T22:08:53.802Z,58.93
2024-02-29T22:12:12.087Z,59.38
2024-02-29T22:15:29.929Z,58.75
2024-02-29T22:18:48.065Z,61.83
2024-02-29T22:22:05.860Z,58.60
2024-02-29T22:25:26.992Z,64.68
2024-02-29T22:28:44.575Z,61.23
2024-02-29T22:32:04.108Z,60.98
2024-02-29T22:35:22.892Z,60.70
2024-02-29T22:38:41.039Z,63.13
2024-02-29T22:42:02.205Z,60.03
2024-02-29T22:45:19.755Z,60.08
2024-02-29T22:48:38.211Z,59.05
2024-02-29T22:51:56.717Z,61.23
2024-02-29T22:55:15.695Z,62.40
2024-02-29T22:58:33.437Z,63.88
2024-02-29T23:01:51.674Z,63.05
2024-02-29T23:05:09.907Z,61.55
2024-02-29T23:08:27.496Z,66.05
2024-02-29T23:11:45.879Z,64.13
2024-02-29T23:15:03.286Z,64.35
2024-02-29T23:18:20.744Z,61.93
2024-02-29T23:21:38.551Z,64.60
2024-02-29T23:24:56.197Z,68.98
2024-02-29T23:28:14.508Z,65.43
2024-02-29T23:31:32.488Z,72.73
2024-02-29T23:34:50.239Z,68.50
2024-02-29T23:38:07.653Z,67.05
2024-02-29T23:41:26.252Z,69.43
2024-02-29T23:44:43.979Z,71.78
2024-02-29T23:48:01.549Z,65.03
2024-02-29T23:51:19.322Z,64.98
2024-02-29T23:54:36.781Z,70.50
2024-02-29T23:57:54.622Z,72.03
